createdAt,value
2022-12-04T00:01:37.105Z,1.80
2022-12-04T00:06:06.661Z,1.90
2022-12-04T00:10:23.796Z,1.80
2022-12-04T00:15:16.469Z,1.80
2022-12-04T00:19:18.086Z,1.80
2022-12-04T00:23:36.247Z,1.80
2022-12-04T00:27:53.388Z,1.80
2022-12-04T00:32:10.527Z,1.80
2022-12-04T00:36:28.933Z,1.90
2022-12-04T00:40:52.151Z,1.80
2022-12-04T00:45:09.438Z,1.80
2022-12-04T00:49:27.141Z,1.80
2022-12-04T00:53:44.862Z,1.90
2022-12-04T00:58:01.987Z,1.80
2022-12-04T01:02:19.226Z,1.70
2022-12-04T01:06:36.473Z,1.80
2022-12-04T01:10:53.884Z,1.80
2022-12-04T01:15:11.282Z,1.90
2022-12-04T01:19:28.558Z,1.90
2022-12-04T01:23:46.030Z,1.90
2022-12-04T01:28:03.410Z,2.00
2022-12-04T01:32:20.677Z,1.90
2022-12-04T01:36:38.000Z,1.90
2022-12-04T01:40:56.123Z,2.00
2022-12-04T01:45:31.451Z,1.90
2022-12-04T01:49:49.046Z,2.00
2022-12-04T01:54:11.047Z,2.00
2022-12-04T01:58:36.347Z,2.00
2022-12-04T02:02:53.901Z,2.00
2022-12-04T02:07:11.877Z,2.00
2022-12-04T02:11:59.457Z,2.10
2022-12-04T02:16:37.638Z,2.10
2022-12-04T02:21:19.612Z,2.10
2022-12-04T02:26:04.251Z,2.10
2022-12-04T02:30:21.638Z,2.10
2022-12-04T02:34:51.556Z,2.00
2022-12-04T02:39:21.603Z,2.10
2022-12-04T02:43:46.792Z,2.10
2022-12-04T02:48:07.598Z,2.10
2022-12-04T02:52:38.664Z,2.10
2022-12-04T02:56:57.782Z,2.00
2022-12-04T03:01:21.718Z,2.10
2022-12-04T03:05:44.811Z,2.10
2022-12-04T03:10:09.078Z,2.10
2022-12-04T03:14:31.141Z,2.10
2022-12-04T03:19:27.280Z,2.10
2022-12-04T03:23:49.120Z,2.10
2022-12-04T03:28:11.040Z,2.00
2022-12-04T03:32:50.423Z,2.00
2022-12-04T03:37:14.123Z,2.10
2022-12-04T03:41:49.719Z,2.10
2022-12-04T03:46:24.590Z,2.10
2022-12-04T03:51:06.879Z,2.10
2022-12-04T03:55:29.521Z,2.00
2022-12-04T04:00:05.935Z,2.10
2022-12-04T04:04:28.150Z,2.10
2022-12-04T04:08:50.451Z,2.10
2022-12-04T04:13:26.579Z,2.20
2022-12-04T04:18:05.718Z,2.20
2022-12-04T04:22:42.778Z,2.10
2022-12-04T04:27:00.547Z,2.10
2022-12-04T04:31:33.055Z,2.10
2022-12-04T04:35:53.559Z,2.10
2022-12-04T04:40:58.986Z,2.00
2022-12-04T04:45:21.961Z,2.10
2022-12-04T04:49:41.344Z,2.10
2022-12-04T04:54:00.957Z,2.10
2022-12-04T04:58:20.874Z,2.00
2022-12-04T05:02:38.427Z,2.00
2022-12-04T05:06:55.687Z,1.90
2022-12-04T05:11:14.361Z,2.00
2022-12-04T05:15:31.488Z,2.00
2022-12-04T05:19:55.148Z,2.00
2022-12-04T05:24:12.572Z,2.10
2022-12-04T05:28:29.728Z,2.00
2022-12-04T05:32:46.932Z,2.10
2022-12-04T05:37:04.121Z,2.10
2022-12-04T05:41:21.238Z,2.00
2022-12-04T05:45:38.348Z,2.10
2022-12-04T05:49:55.767Z,2.10
2022-12-04T05:54:13.239Z,2.00
2022-12-04T05:58:30.743Z,2.10
2022-12-04T06:02:47.900Z,2.10
2022-12-04T06:07:05.247Z,2.10
2022-12-04T06:11:29.509Z,2.10
2022-12-04T06:15:46.609Z,2.10
2022-12-04T06:20:09.546Z,2.00
2022-12-04T06:24:28.476Z,2.00
2022-12-04T06:28:45.917Z,2.10
2022-12-04T06:33:03.055Z,2.00
2022-12-04T06:37:22.141Z,2.10
2022-12-04T06:41:39.310Z,2.10
2022-12-04T06:46:01.195Z,2.00
2022-12-04T06:50:18.421Z,2.00
2022-12-04T06:54:35.553Z,2.00
2022-12-04T06:58:55.350Z,2.00
2022-12-04T07:03:12.453Z,2.10
2022-12-04T07:07:29.653Z,2.20
2022-12-04T07:11:46.874Z,2.10
2022-12-04T07:16:06.460Z,2.10
2022-12-04T07:20:24.125Z,2.20
2022-12-04T07:24:41.435Z,2.30
2022-12-04T07:28:59.485Z,2.30
2022-12-04T07:33:16.598Z,2.40
2022-12-04T07:37:36.035Z,2.30
2022-12-04T07:41:53.149Z,2.30
2022-12-04T07:46:16.588Z,2.30
2022-12-04T07:50:33.757Z,2.40
2022-12-04T07:54:50.858Z,2.40
2022-12-04T07:59:07.980Z,2.50
2022-12-04T08:03:26.073Z,2.60
2022-12-04T08:07:43.265Z,2.60
2022-12-04T08:12:00.620Z,2.60
2022-12-04T08:16:17.770Z,2.70
2022-12-04T08:20:34.919Z,2.70
2022-12-04T08:24:52.050Z,2.70
2022-12-04T08:29:09.185Z,2.70
2022-12-04T08:33:26.269Z,2.70
2022-12-04T08:37:43.372Z,2.60
2022-12-04T08:42:00.458Z,2.50
2022-12-04T08:46:18.713Z,2.50
2022-12-04T08:50:35.996Z,2.50
2022-12-04T08:54:53.064Z,2.50
2022-12-04T08:59:12.596Z,2.60
2022-12-04T09:03:31.203Z,2.60
2022-12-04T09:07:48.458Z,2.60
2022-12-04T09:12:05.681Z,2.70
2022-12-04T09:16:24.672Z,2.60
2022-12-04T09:20:41.857Z,2.60
2022-12-04T09:24:59.069Z,2.50
2022-12-04T09:29:16.235Z,2.50
2022-12-04T09:33:33.462Z,2.60
2022-12-04T09:37:50.587Z,2.80
2022-12-04T09:42:13.877Z,2.90
2022-12-04T09:46:37.414Z,3.00
2022-12-04T09:50:55.761Z,3.20
2022-12-04T09:55:23.818Z,3.20
2022-12-04T09:59:41.335Z,3.30
2022-12-04T10:04:05.752Z,3.20
2022-12-04T10:08:35.886Z,3.10
2022-12-04T10:13:05.012Z,2.90
2022-12-04T10:17:34.029Z,3.00
2022-12-04T10:22:15.975Z,3.20
2022-12-04T10:26:46.790Z,3.00
2022-12-04T10:31:06.035Z,3.00
2022-12-04T10:35:30.081Z,3.10
2022-12-04T10:40:01.262Z,3.20
2022-12-04T10:44:20.309Z,3.20
2022-12-04T10:48:39.753Z,3.00
2022-12-04T10:52:56.952Z,3.00
2022-12-04T10:57:14.641Z,3.10
2022-12-04T11:01:34.180Z,3.00
2022-12-04T11:06:00.317Z,3.00
2022-12-04T11:10:38.339Z,3.10
2022-12-04T11:15:21.758Z,3.30
2022-12-04T11:19:38.858Z,3.40
2022-12-04T11:23:56.611Z,3.30
2022-12-04T11:28:40.209Z,3.40
2022-12-04T11:32:59.640Z,3.30
2022-12-04T11:37:22.540Z,3.40
2022-12-04T11:41:39.658Z,3.60
2022-12-04T11:46:07.017Z,3.50
2022-12-04T11:50:38.451Z,3.40
2022-12-04T11:55:28.518Z,3.40
2022-12-04T11:59:59.024Z,3.50
2022-12-04T12:05:04.739Z,3.50
2022-12-04T12:09:35.577Z,3.30
2022-12-04T12:14:14.478Z,3.40
2022-12-04T12:18:45.872Z,3.50
2022-12-04T12:23:26.473Z,3.50
2022-12-04T12:27:50.418Z,3.50
2022-12-04T12:32:16.108Z,3.50
2022-12-04T12:36:43.619Z,3.60
2022-12-04T12:41:26.440Z,3.80
2022-12-04T12:46:20.800Z,3.70
2022-12-04T12:50:58.247Z,3.60
2022-12-04T12:55:31.974Z,3.70
2022-12-04T12:59:53.942Z,3.80
2022-12-04T13:04:35.378Z,3.70
2022-12-04T13:09:15.564Z,3.70
2022-12-04T13:13:39.398Z,3.70
2022-12-04T13:17:58.496Z,3.70
2022-12-04T13:22:24.380Z,3.70
2022-12-04T13:27:04.377Z,3.70
2022-12-04T13:31:29.544Z,3.70
2022-12-04T13:36:01.423Z,3.70
2022-12-04T13:40:18.505Z,3.70
2022-12-04T13:44:36.196Z,3.60
2022-12-04T13:48:53.411Z,3.70
2022-12-04T13:53:37.726Z,3.70
2022-12-04T13:58:00.533Z,3.80
2022-12-04T14:02:28.661Z,3.70
2022-12-04T14:06:51.837Z,3.80
2022-12-04T14:11:14.427Z,3.70
2022-12-04T14:15:36.063Z,3.70
2022-12-04T14:19:59.858Z,3.70
2022-12-04T14:24:38.283Z,3.70
2022-12-04T14:29:32.533Z,3.70
2022-12-04T14:33:59.641Z,3.70
2022-12-04T14:38:22.180Z,3.70
2022-12-04T14:42:39.938Z,3.80
2022-12-04T14:47:04.098Z,3.80
2022-12-04T14:51:47.062Z,3.80
2022-12-04T14:56:15.852Z,3.70
2022-12-04T15:00:32.985Z,3.70
2022-12-04T15:04:51.211Z,3.80
2022-12-04T15:09:37.529Z,3.80
2022-12-04T15:14:03.844Z,3.70
2022-12-04T15:18:21.020Z,3.70
2022-12-04T15:22:38.512Z,3.70
2022-12-04T15:26:56.372Z,3.70
2022-12-04T15:31:19.897Z,3.70
2022-12-04T15:35:41.182Z,3.70
2022-12-04T15:39:59.414Z,3.70
2022-12-04T15:44:35.252Z,3.70
2022-12-04T15:48:52.310Z,3.80
2022-12-04T15:53:16.880Z,3.80
